Weber, Minnesota
Current Conditions -  °F | °C
As of 8:35 AM on Friday 28 Nov 2014 (Local Time) from KROS Reporting Station
Overcast Overcast  
Wind Chill:   Ceiling: 2600
Heat Index: 12°   Visibility: 10mi
Dew Point:   Wind: 5mph
Humidity: 83%   Direction: 90°E
Pressure: 30.03"   Gusts: NA
Location:  45.5343°N, 92.8964°W
Report Text: KROS 281435Z AUTO 09004KT 10SM OVC026 M11/M13 A3003 RMK AO2 T11111135
Loading
Personal Weather Stations






























Interactive Weather Map New forecast layout! Learn more

10-Day Weather Forecast

Advertisements
Track Severe Weather on mobile